sensor_id;sensor_type;location;lat;lon;timestamp;pressure;altitude;pressure_sealevel;temperature;humidity
72262;BME280;60173;52.112;8.648;2023-10-13T00:02:00;100244.06;;;16.20;100.00
72262;BME280;60173;52.112;8.648;2023-10-13T00:04:28;100244.53;;;16.35;100.00
72262;BME280;60173;52.112;8.648;2023-10-13T00:06:55;100241.91;;;16.26;100.00
72262;BME280;60173;52.112;8.648;2023-10-13T00:09:26;100249.09;;;16.31;100.00
72262;BME280;60173;52.112;8.648;2023-10-13T00:11:52;100243.19;;;16.41;100.00
72262;BME280;60173;52.112;8.648;2023-10-13T00:14:19;100241.81;;;16.35;100.00
72262;BME280;60173;52.112;8.648;2023-10-13T00:16:45;100239.59;;;16.28;100.00
72262;BME280;60173;52.112;8.648;2023-10-13T00:19:12;100234.59;;;16.18;100.00
72262;BME280;60173;52.112;8.648;2023-10-13T00:21:39;100231.28;;;16.24;100.00
72262;BME280;60173;52.112;8.648;2023-10-13T00:24:05;100228.31;;;16.17;100.00
72262;BME280;60173;52.112;8.648;2023-10-13T00:26:32;100223.28;;;16.19;100.00
72262;BME280;60173;52.112;8.648;2023-10-13T00:29:00;100226.03;;;16.19;100.00
72262;BME280;60173;52.112;8.648;2023-10-13T00:31:27;100225.13;;;16.27;100.00
72262;BME280;60173;52.112;8.648;2023-10-13T00:33:53;100218.38;;;16.25;100.00
72262;BME280;60173;52.112;8.648;2023-10-13T00:36:20;100223.75;;;16.21;100.00
72262;BME280;60173;52.112;8.648;2023-10-13T00:38:46;100221.00;;;16.34;100.00
72262;BME280;60173;52.112;8.648;2023-10-13T00:41:12;100222.38;;;16.40;100.00
72262;BME280;60173;52.112;8.648;2023-10-13T00:43:47;100215.28;;;16.51;100.00
72262;BME280;60173;52.112;8.648;2023-10-13T00:46:13;100214.38;;;16.47;100.00
72262;BME280;60173;52.112;8.648;2023-10-13T00:48:41;100205.72;;;16.20;100.00
72262;BME280;60173;52.112;8.648;2023-10-13T00:51:11;100213.47;;;16.18;100.00
72262;BME280;60173;52.112;8.648;2023-10-13T00:53:39;100214.16;;;16.15;100.00
72262;BME280;60173;52.112;8.648;2023-10-13T00:56:07;100216.53;;;16.04;100.00
72262;BME280;60173;52.112;8.648;2023-10-13T00:58:34;100216.31;;;16.10;100.00
72262;BME280;60173;52.112;8.648;2023-10-13T01:01:01;100214.94;;;16.16;100.00
72262;BME280;60173;52.112;8.648;2023-10-13T01:03:28;100205.72;;;16.20;100.00
72262;BME280;60173;52.112;8.648;2023-10-13T01:05:55;100211.63;;;16.22;100.00
72262;BME280;60173;52.112;8.648;2023-10-13T01:08:33;100205.59;;;16.17;100.00
72262;BME280;60173;52.112;8.648;2023-10-13T01:11:00;100204.91;;;16.20;100.00
72262;BME280;60173;52.112;8.648;2023-10-13T01:13:26;100197.97;;;16.35;100.00
72262;BME280;60173;52.112;8.648;2023-10-13T01:15:52;100199.19;;;16.37;100.00
72262;BME280;60173;52.112;8.648;2023-10-13T01:18:19;100194.06;;;16.23;100.00
72262;BME280;60173;52.112;8.648;2023-10-13T01:20:45;100185.75;;;16.32;100.00
72262;BME280;60173;52.112;8.648;2023-10-13T01:23:12;100188.34;;;16.16;100.00
72262;BME280;60173;52.112;8.648;2023-10-13T01:25:39;100185.59;;;16.16;100.00
72262;BME280;60173;52.112;8.648;2023-10-13T01:28:05;100177.97;;;16.22;100.00
72262;BME280;60173;52.112;8.648;2023-10-13T01:30:32;100174.44;;;16.21;100.00
72262;BME280;60173;52.112;8.648;2023-10-13T01:32:58;100168.03;;;16.30;100.00
72262;BME280;60173;52.112;8.648;2023-10-13T01:35:25;100176.13;;;16.38;100.00
72262;BME280;60173;52.112;8.648;2023-10-13T01:37:51;100170.28;;;16.40;100.00
72262;BME280;60173;52.112;8.648;2023-10-13T01:40:18;100165.06;;;16.35;100.00
72262;BME280;60173;52.112;8.648;2023-10-13T01:42:46;100173.72;;;16.37;100.00
72262;BME280;60173;52.112;8.648;2023-10-13T01:45:12;100168.81;;;16.42;100.00
72262;BME280;60173;52.112;8.648;2023-10-13T01:47:39;100163.91;;;16.36;100.00
72262;BME280;60173;52.112;8.648;2023-10-13T01:50:06;100162.66;;;16.33;100.00
72262;BME280;60173;52.112;8.648;2023-10-13T01:52:33;100161.88;;;16.20;100.00
72262;BME280;60173;52.112;8.648;2023-10-13T01:54:59;100160.03;;;16.24;100.00
72262;BME280;60173;52.112;8.648;2023-10-13T01:57:25;100147.69;;;16.31;100.00
72262;BME280;60173;52.112;8.648;2023-10-13T01:59:52;100139.91;;;16.45;100.00
72262;BME280;60173;52.112;8.648;2023-10-13T02:02:18;100149.06;;;16.49;100.00
72262;BME280;60173;52.112;8.648;2023-10-13T02:04:45;100145.97;;;16.50;100.00
72262;BME280;60173;52.112;8.648;2023-10-13T02:07:11;100139.81;;;16.41;100.00
72262;BME280;60173;52.112;8.648;2023-10-13T02:09:38;100153.66;;;16.33;100.00
72262;BME280;60173;52.112;8.648;2023-10-13T02:12:04;100142.56;;;16.29;100.00
72262;BME280;60173;52.112;8.648;2023-10-13T02:14:30;100141.53;;;16.34;100.00
72262;BME280;60173;52.112;8.648;2023-10-13T02:16:57;100139.94;;;16.33;100.00
72262;BME280;60173;52.112;8.648;2023-10-13T02:19:23;100140.06;;;16.24;100.00
72262;BME280;60173;52.112;8.648;2023-10-13T02:21:50;100135.84;;;16.26;100.00
72262;BME280;60173;52.112;8.648;2023-10-13T02:24:16;100126.69;;;16.22;100.00
72262;BME280;60173;52.112;8.648;2023-10-13T02:26:42;100129.78;;;16.21;100.00
72262;BME280;60173;52.112;8.648;2023-10-13T02:29:09;100117.91;;;16.29;100.00
72262;BME280;60173;52.112;8.648;2023-10-13T02:31:36;100122.34;;;16.34;100.00
72262;BME280;60173;52.112;8.648;2023-10-13T02:34:03;100124.41;;;16.24;100.00
72262;BME280;60173;52.112;8.648;2023-10-13T02:36:30;100128.88;;;16.17;100.00
72262;BME280;60173;52.112;8.648;2023-10-13T02:38:56;100117.22;;;16.20;100.00
72262;BME280;60173;52.112;8.648;2023-10-13T02:41:23;100118.59;;;16.38;100.00
72262;BME280;60173;52.112;8.648;2023-10-13T02:43:49;100105.69;;;16.26;100.00
72262;BME280;60173;52.112;8.648;2023-10-13T02:46:15;100102.72;;;16.32;100.00
72262;BME280;60173;52.112;8.648;2023-10-13T02:48:42;100104.28;;;16.45;100.00
72262;BME280;60173;52.112;8.648;2023-10-13T02:51:09;100096.31;;;16.27;100.00
72262;BME280;60173;52.112;8.648;2023-10-13T02:53:35;100099.06;;;16.27;100.00
72262;BME280;60173;52.112;8.648;2023-10-13T02:56:02;100095.66;;;16.18;100.00
72262;BME280;60173;52.112;8.648;2023-10-13T02:58:28;100095.19;;;16.16;100.00
72262;BME280;60173;52.112;8.648;2023-10-13T03:00:54;100089.25;;;16.26;100.00
72262;BME280;60173;52.112;8.648;2023-10-13T03:03:21;100086.41;;;16.23;100.00
72262;BME280;60173;52.112;8.648;2023-10-13T03:05:47;100081.47;;;16.28;100.00
72262;BME280;60173;52.112;8.648;2023-10-13T03:08:14;100077.50;;;16.26;100.00
72262;BME280;60173;52.112;8.648;2023-10-13T03:10:40;100076.81;;;16.29;100.00
72262;BME280;60173;52.112;8.648;2023-10-13T03:13:07;100069.34;;;16.42;100.00
72262;BME280;60173;52.112;8.648;2023-10-13T03:15:33;100073.66;;;16.55;100.00
72262;BME280;60173;52.112;8.648;2023-10-13T03:18:00;100061.00;;;16.50;100.00
72262;BME280;60173;52.112;8.648;2023-10-13T03:20:26;100072.97;;;16.46;100.00
72262;BME280;60173;52.112;8.648;2023-10-13T03:22:53;100065.59;;;16.34;100.00
72262;BME280;60173;52.112;8.648;2023-10-13T03:25:19;100063.53;;;16.43;100.00
72262;BME280;60173;52.112;8.648;2023-10-13T03:27:46;100059.75;;;16.48;100.00
72262;BME280;60173;52.112;8.648;2023-10-13T03:30:12;100056.53;;;16.46;100.00
72262;BME280;60173;52.112;8.648;2023-10-13T03:32:38;100054.41;;;16.39;100.00
72262;BME280;60173;52.112;8.648;2023-10-13T03:35:05;100055.19;;;16.40;100.00
72262;BME280;60173;52.112;8.648;2023-10-13T03:37:32;100057.50;;;16.38;100.00
72262;BME280;60173;52.112;8.648;2023-10-13T03:39:58;100050.25;;;16.45;100.00
72262;BME280;60173;52.112;8.648;2023-10-13T03:42:25;100047.19;;;16.47;100.00
72262;BME280;60173;52.112;8.648;2023-10-13T03:44:51;100044.50;;;16.35;100.00
72262;BME280;60173;52.112;8.648;2023-10-13T03:47:17;100041.63;;;16.43;100.00
72262;BME280;60173;52.112;8.648;2023-10-13T03:49:45;100035.16;;;16.52;100.00
72262;BME280;60173;52.112;8.648;2023-10-13T03:52:11;100027.78;;;16.40;100.00
72262;BME280;60173;52.112;8.648;2023-10-13T03:54:38;100025.97;;;16.44;100.00
72262;BME280;60173;52.112;8.648;2023-10-13T03:57:04;100025.50;;;16.42;100.00
72262;BME280;60173;52.112;8.648;2023-10-13T03:59:30;100021.03;;;16.49;100.00
72262;BME280;60173;52.112;8.648;2023-10-13T04:01:57;100022.84;;;16.58;100.00
72262;BME280;60173;52.112;8.648;2023-10-13T04:04:24;100024.31;;;16.55;100.00
72262;BME280;60173;52.112;8.648;2023-10-13T04:06:50;100020.19;;;16.61;100.00
72262;BME280;60173;52.112;8.648;2023-10-13T04:09:18;100007.81;;;16.39;100.00
72262;BME280;60173;52.112;8.648;2023-10-13T04:11:45;100010.25;;;16.57;100.00
72262;BME280;60173;52.112;8.648;2023-10-13T04:14:12;100007.41;;;16.53;100.00
72262;BME280;60173;52.112;8.648;2023-10-13T04:16:38;100007.06;;;16.55;100.00
72262;BME280;60173;52.112;8.648;2023-10-13T04:19:05;100002.81;;;16.57;100.00
72262;BME280;60173;52.112;8.648;2023-10-13T04:21:31;99993.81;;;16.57;100.00
72262;BME280;60173;52.112;8.648;2023-10-13T04:23:57;99990.88;;;16.49;100.00
72262;BME280;60173;52.112;8.648;2023-10-13T04:26:24;99988.84;;;16.46;100.00
72262;BME280;60173;52.112;8.648;2023-10-13T04:28:50;99981.19;;;16.40;100.00
72262;BME280;60173;52.112;8.648;2023-10-13T04:31:16;99978.44;;;16.40;100.00
72262;BME280;60173;52.112;8.648;2023-10-13T04:33:43;99975.47;;;16.45;100.00
72262;BME280;60173;52.112;8.648;2023-10-13T04:36:11;99973.03;;;16.56;100.00
72262;BME280;60173;52.112;8.648;2023-10-13T04:38:38;99979.22;;;16.53;100.00
72262;BME280;60173;52.112;8.648;2023-10-13T04:41:04;99977.25;;;16.53;100.00
72262;BME280;60173;52.112;8.648;2023-10-13T04:43:31;99968.34;;;16.56;100.00
72262;BME280;60173;52.112;8.648;2023-10-13T04:45:59;99967.47;;;16.68;100.00
72262;BME280;60173;52.112;8.648;2023-10-13T04:48:26;99959.41;;;16.59;100.00
72262;BME280;60173;52.112;8.648;2023-10-13T04:50:52;99956.91;;;16.54;100.00
72262;BME280;60173;52.112;8.648;2023-10-13T04:53:19;99955.34;;;16.53;100.00
72262;BME280;60173;52.112;8.648;2023-10-13T04:55:49;99953.84;;;16.56;100.00
72262;BME280;60173;52.112;8.648;2023-10-13T04:58:15;99951.56;;;16.58;100.00
72262;BME280;60173;52.112;8.648;2023-10-13T05:00:41;99937.72;;;16.54;100.00
72262;BME280;60173;52.112;8.648;2023-10-13T05:03:08;99942.78;;;16.52;100.00
72262;BME280;60173;52.112;8.648;2023-10-13T05:05:34;99930.28;;;16.39;100.00
72262;BME280;60173;52.112;8.648;2023-10-13T05:08:00;99920.75;;;16.48;100.00
72262;BME280;60173;52.112;8.648;2023-10-13T05:10:28;99921.19;;;16.50;100.00
72262;BME280;60173;52.112;8.648;2023-10-13T05:12:54;99922.34;;;16.49;100.00
72262;BME280;60173;52.112;8.648;2023-10-13T05:15:21;99919.63;;;16.49;100.00
72262;BME280;60173;52.112;8.648;2023-10-13T05:17:47;99923.94;;;16.50;100.00
72262;BME280;60173;52.112;8.648;2023-10-13T05:20:13;99921.75;;;16.56;100.00
72262;BME280;60173;52.112;8.648;2023-10-13T05:22:40;99918.84;;;16.37;100.00
72262;BME280;60173;52.112;8.648;2023-10-13T05:25:06;99917.66;;;16.22;100.00
72262;BME280;60173;52.112;8.648;2023-10-13T05:27:33;99908.19;;;16.19;100.00
72262;BME280;60173;52.112;8.648;2023-10-13T05:29:59;99910.06;;;16.15;100.00
72262;BME280;60173;52.112;8.648;2023-10-13T05:32:26;99904.81;;;16.10;100.00
72262;BME280;60173;52.112;8.648;2023-10-13T05:34:52;99910.16;;;16.19;100.00
72262;BME280;60173;52.112;8.648;2023-10-13T05:37:19;99890.88;;;16.15;100.00
72262;BME280;60173;52.112;8.648;2023-10-13T05:39:45;99883.81;;;16.14;100.00
72262;BME280;60173;52.112;8.648;2023-10-13T05:42:12;99889.16;;;16.23;100.00
72262;BME280;60173;52.112;8.648;2023-10-13T05:44:38;99871.66;;;16.27;100.00
72262;BME280;60173;52.112;8.648;2023-10-13T05:47:04;99872.09;;;16.30;100.00
72262;BME280;60173;52.112;8.648;2023-10-13T05:49:31;99872.72;;;16.39;100.00
72262;BME280;60173;52.112;8.648;2023-10-13T05:51:57;99861.75;;;16.39;100.00
72262;BME280;60173;52.112;8.648;2023-10-13T05:54:24;99863.47;;;16.43;100.00
72262;BME280;60173;52.112;8.648;2023-10-13T05:56:51;99859.66;;;16.48;100.00
72262;BME280;60173;52.112;8.648;2023-10-13T05:59:18;99860.97;;;16.54;100.00
72262;BME280;60173;52.112;8.648;2023-10-13T06:01:45;99868.13;;;16.43;100.00
72262;BME280;60173;52.112;8.648;2023-10-13T06:04:11;99868.94;;;16.43;100.00
72262;BME280;60173;52.112;8.648;2023-10-13T06:06:38;99860.81;;;16.47;100.00
72262;BME280;60173;52.112;8.648;2023-10-13T06:09:04;99855.56;;;16.42;100.00
72262;BME280;60173;52.112;8.648;2023-10-13T06:11:30;99864.97;;;16.41;100.00
72262;BME280;60173;52.112;8.648;2023-10-13T06:13:57;99859.84;;;16.55;100.00
72262;BME280;60173;52.112;8.648;2023-10-13T06:16:23;99857.72;;;16.64;100.00
72262;BME280;60173;52.112;8.648;2023-10-13T06:18:50;99849.94;;;16.66;100.00
72262;BME280;60173;52.112;8.648;2023-10-13T06:21:16;99847.63;;;16.68;100.00
72262;BME280;60173;52.112;8.648;2023-10-13T06:23:42;99846.75;;;16.64;100.00
72262;BME280;60173;52.112;8.648;2023-10-13T06:26:09;99825.97;;;16.63;100.00
72262;BME280;60173;52.112;8.648;2023-10-13T06:28:35;99836.75;;;16.40;100.00
72262;BME280;60173;52.112;8.648;2023-10-13T06:31:04;99841.53;;;16.43;100.00
72262;BME280;60173;52.112;8.648;2023-10-13T06:33:34;99838.34;;;16.57;100.00
72262;BME280;60173;52.112;8.648;2023-10-13T06:36:01;99837.81;;;16.67;100.00
72262;BME280;60173;52.112;8.648;2023-10-13T06:38:29;99825.97;;;16.63;100.00
72262;BME280;60173;52.112;8.648;2023-10-13T06:40:55;99813.78;;;16.61;100.00
72262;BME280;60173;52.112;8.648;2023-10-13T06:43:22;99820.41;;;16.44;100.00
72262;BME280;60173;52.112;8.648;2023-10-13T06:45:51;99818.25;;;16.37;100.00
72262;BME280;60173;52.112;8.648;2023-10-13T06:48:17;99816.16;;;16.46;100.00
72262;BME280;60173;52.112;8.648;2023-10-13T06:50:48;99808.28;;;16.45;100.00
72262;BME280;60173;52.112;8.648;2023-10-13T06:53:14;99821.53;;;16.43;100.00
72262;BME280;60173;52.112;8.648;2023-10-13T06:55:41;99815.00;;;16.63;100.00
72262;BME280;60173;52.112;8.648;2023-10-13T06:58:07;99817.72;;;16.63;100.00
72262;BME280;60173;52.112;8.648;2023-10-13T07:00:33;99806.25;;;16.58;100.00
72262;BME280;60173;52.112;8.648;2023-10-13T07:03:00;99805.03;;;16.55;100.00
72262;BME280;60173;52.112;8.648;2023-10-13T07:05:27;99798.13;;;16.61;100.00
72262;BME280;60173;52.112;8.648;2023-10-13T07:07:54;99811.19;;;16.68;100.00
72262;BME280;60173;52.112;8.648;2023-10-13T07:10:20;99802.09;;;16.64;100.00
72262;BME280;60173;52.112;8.648;2023-10-13T07:12:47;99799.00;;;16.65;100.00
72262;BME280;60173;52.112;8.648;2023-10-13T07:15:13;99802.44;;;16.62;100.00
72262;BME280;60173;52.112;8.648;2023-10-13T07:17:39;99800.78;;;16.58;100.00
72262;BME280;60173;52.112;8.648;2023-10-13T07:20:07;99789.00;;;16.57;100.00
72262;BME280;60173;52.112;8.648;2023-10-13T07:22:33;99781.78;;;16.49;100.00
72262;BME280;60173;52.112;8.648;2023-10-13T07:25:00;99808.03;;;16.50;100.00
72262;BME280;60173;52.112;8.648;2023-10-13T07:27:26;99804.84;;;16.48;100.00
72262;BME280;60173;52.112;8.648;2023-10-13T07:29:55;99792.09;;;16.71;100.00
72262;BME280;60173;52.112;8.648;2023-10-13T07:32:24;99790.34;;;16.79;100.00
72262;BME280;60173;52.112;8.648;2023-10-13T07:34:55;99798.38;;;16.88;100.00
72262;BME280;60173;52.112;8.648;2023-10-13T07:37:22;99818.06;;;17.09;100.00
72262;BME280;60173;52.112;8.648;2023-10-13T07:39:49;99798.34;;;17.04;100.00
72262;BME280;60173;52.112;8.648;2023-10-13T07:42:15;99796.03;;;17.06;100.00
72262;BME280;60173;52.112;8.648;2023-10-13T07:44:41;99795.56;;;17.20;100.00
72262;BME280;60173;52.112;8.648;2023-10-13T07:47:08;99805.03;;;17.22;100.00
72262;BME280;60173;52.112;8.648;2023-10-13T07:49:38;99810.13;;;17.04;100.00
72262;BME280;60173;52.112;8.648;2023-10-13T07:52:07;99811.16;;;17.15;100.00
72262;BME280;60173;52.112;8.648;2023-10-13T07:54:34;99808.91;;;17.21;100.00
72262;BME280;60173;52.112;8.648;2023-10-13T07:57:01;99798.19;;;17.32;100.00
72262;BME280;60173;52.112;8.648;2023-10-13T07:59:27;99792.69;;;17.32;100.00
72262;BME280;60173;52.112;8.648;2023-10-13T08:01:53;99795.22;;;17.40;100.00
72262;BME280;60173;52.112;8.648;2023-10-13T08:04:20;99803.97;;;17.46;100.00
72262;BME280;60173;52.112;8.648;2023-10-13T08:06:46;99801.91;;;17.24;100.00
72262;BME280;60173;52.112;8.648;2023-10-13T08:09:13;99807.41;;;17.24;100.00
72262;BME280;60173;52.112;8.648;2023-10-13T08:11:39;99810.88;;;17.21;100.00
72262;BME280;60173;52.112;8.648;2023-10-13T08:14:06;99802.50;;;17.13;100.00
72262;BME280;60173;52.112;8.648;2023-10-13T08:16:47;99801.06;;;17.20;100.00
72262;BME280;60173;52.112;8.648;2023-10-13T08:19:16;99790.94;;;17.24;100.00
72262;BME280;60173;52.112;8.648;2023-10-13T08:21:43;99806.59;;;17.39;100.00
72262;BME280;60173;52.112;8.648;2023-10-13T08:24:10;99794.19;;;17.29;100.00
72262;BME280;60173;52.112;8.648;2023-10-13T08:26:37;99797.31;;;17.47;100.00
72262;BME280;60173;52.112;8.648;2023-10-13T08:29:03;99789.59;;;17.72;100.00
72262;BME280;60173;52.112;8.648;2023-10-13T08:31:31;99786.56;;;17.77;100.00
72262;BME280;60173;52.112;8.648;2023-10-13T08:33:57;99792.44;;;17.95;100.00
72262;BME280;60173;52.112;8.648;2023-10-13T08:36:23;99793.72;;;18.01;100.00
72262;BME280;60173;52.112;8.648;2023-10-13T08:38:50;99792.84;;;18.17;100.00
72262;BME280;60173;52.112;8.648;2023-10-13T08:41:16;99791.84;;;18.05;100.00
72262;BME280;60173;52.112;8.648;2023-10-13T08:43:43;99787.50;;;18.27;100.00
72262;BME280;60173;52.112;8.648;2023-10-13T08:46:10;99783.69;;;18.32;100.00
72262;BME280;60173;52.112;8.648;2023-10-13T08:48:39;99778.28;;;18.39;100.00
72262;BME280;60173;52.112;8.648;2023-10-13T08:51:05;99767.66;;;18.61;100.00
72262;BME280;60173;52.112;8.648;2023-10-13T08:53:32;99764.06;;;18.83;100.00
72262;BME280;60173;52.112;8.648;2023-10-13T08:56:09;99753.63;;;18.92;100.00
72262;BME280;60173;52.112;8.648;2023-10-13T08:58:37;99751.66;;;19.23;100.00
72262;BME280;60173;52.112;8.648;2023-10-13T09:01:03;99751.44;;;19.35;99.32
72262;BME280;60173;52.112;8.648;2023-10-13T09:03:30;99746.94;;;19.54;98.49
72262;BME280;60173;52.112;8.648;2023-10-13T09:05:56;99741.22;;;19.36;99.66
72262;BME280;60173;52.112;8.648;2023-10-13T09:08:26;99725.16;;;19.11;100.00
72262;BME280;60173;52.112;8.648;2023-10-13T09:10:58;99724.59;;;19.29;100.00
72262;BME280;60173;52.112;8.648;2023-10-13T09:13:34;99707.91;;;19.48;99.63
72262;BME280;60173;52.112;8.648;2023-10-13T09:16:09;99712.63;;;19.48;98.57
72262;BME280;60173;52.112;8.648;2023-10-13T09:18:35;99699.25;;;19.50;99.60
72262;BME280;60173;52.112;8.648;2023-10-13T09:21:01;99691.72;;;19.43;98.73
72262;BME280;60173;52.112;8.648;2023-10-13T09:23:28;99696.63;;;19.60;98.77
72262;BME280;60173;52.112;8.648;2023-10-13T09:26:05;99681.63;;;19.54;98.45
72262;BME280;60173;52.112;8.648;2023-10-13T09:28:31;99674.47;;;19.50;98.93
72262;BME280;60173;52.112;8.648;2023-10-13T09:30:58;99671.66;;;19.42;99.60
72262;BME280;60173;52.112;8.648;2023-10-13T09:33:26;99668.56;;;19.48;99.68
72262;BME280;60173;52.112;8.648;2023-10-13T09:35:53;99670.09;;;19.79;98.88
72262;BME280;60173;52.112;8.648;2023-10-13T09:38:20;99653.06;;;20.14;96.54
72262;BME280;60173;52.112;8.648;2023-10-13T09:40:46;99653.84;;;20.11;95.72
72262;BME280;60173;52.112;8.648;2023-10-13T09:43:13;99635.81;;;20.24;95.21
72262;BME280;60173;52.112;8.648;2023-10-13T09:45:39;99636.56;;;20.21;94.01
72262;BME280;60173;52.112;8.648;2023-10-13T09:48:10;99638.53;;;20.17;93.43
72262;BME280;60173;52.112;8.648;2023-10-13T09:50:37;99637.31;;;20.11;94.14
72262;BME280;60173;52.112;8.648;2023-10-13T09:53:05;99641.97;;;20.07;92.93
72262;BME280;60173;52.112;8.648;2023-10-13T09:55:35;99632.94;;;20.10;92.12
72262;BME280;60173;52.112;8.648;2023-10-13T09:58:09;99639.63;;;20.05;91.27
72262;BME280;60173;52.112;8.648;2023-10-13T10:00:43;99622.31;;;20.08;91.75
72262;BME280;60173;52.112;8.648;2023-10-13T10:03:10;99619.44;;;19.94;90.72
72262;BME280;60173;52.112;8.648;2023-10-13T10:05:36;99617.50;;;19.98;90.90
72262;BME280;60173;52.112;8.648;2023-10-13T10:08:03;99635.66;;;20.03;89.37
72262;BME280;60173;52.112;8.648;2023-10-13T10:10:56;99638.75;;;19.98;87.90
72262;BME280;60173;52.112;8.648;2023-10-13T10:13:40;99624.63;;;20.03;87.85
72262;BME280;60173;52.112;8.648;2023-10-13T10:16:11;99635.34;;;20.15;88.25
72262;BME280;60173;52.112;8.648;2023-10-13T10:18:41;99613.81;;;20.31;86.51
72262;BME280;60173;52.112;8.648;2023-10-13T10:21:08;99617.00;;;20.41;86.32
72262;BME280;60173;52.112;8.648;2023-10-13T10:23:34;99613.84;;;20.39;86.13
72262;BME280;60173;52.112;8.648;2023-10-13T10:28:38;99609.72;;;20.73;85.41
72262;BME280;60173;52.112;8.648;2023-10-13T10:31:06;99618.84;;;20.88;84.32
72262;BME280;60173;52.112;8.648;2023-10-13T10:33:32;99614.09;;;20.82;84.32
72262;BME280;60173;52.112;8.648;2023-10-13T10:36:00;99597.91;;;20.69;84.31
72262;BME280;60173;52.112;8.648;2023-10-13T10:38:27;99593.63;;;20.90;84.48
72262;BME280;60173;52.112;8.648;2023-10-13T10:41:05;99595.31;;;21.16;82.64
72262;BME280;60173;52.112;8.648;2023-10-13T10:43:37;99583.88;;;21.28;81.97
72262;BME280;60173;52.112;8.648;2023-10-13T10:46:03;99577.25;;;21.61;81.78
72262;BME280;60173;52.112;8.648;2023-10-13T10:48:31;99576.44;;;21.86;79.49
72262;BME280;60173;52.112;8.648;2023-10-13T10:50:58;99571.72;;;22.04;77.01
72262;BME280;60173;52.112;8.648;2023-10-13T10:53:24;99568.53;;;22.31;77.32
72262;BME280;60173;52.112;8.648;2023-10-13T10:55:51;99562.22;;;22.05;78.49
72262;BME280;60173;52.112;8.648;2023-10-13T10:58:17;99556.31;;;21.96;77.57
72262;BME280;60173;52.112;8.648;2023-10-13T11:00:44;99552.78;;;21.85;78.43
72262;BME280;60173;52.112;8.648;2023-10-13T11:03:10;99547.25;;;21.67;78.37
72262;BME280;60173;52.112;8.648;2023-10-13T11:05:44;99552.75;;;21.49;79.84
72262;BME280;60173;52.112;8.648;2023-10-13T11:08:23;99559.88;;;21.43;80.08
72262;BME280;60173;52.112;8.648;2023-10-13T11:10:50;99559.09;;;21.53;79.42
72262;BME280;60173;52.112;8.648;2023-10-13T11:13:16;99542.50;;;21.82;77.98
72262;BME280;60173;52.112;8.648;2023-10-13T11:15:44;99529.44;;;21.89;75.60
72262;BME280;60173;52.112;8.648;2023-10-13T11:18:10;99531.81;;;21.95;76.22
72262;BME280;60173;52.112;8.648;2023-10-13T11:20:41;99528.25;;;22.01;75.20
72262;BME280;60173;52.112;8.648;2023-10-13T11:23:12;99514.34;;;22.41;75.84
72262;BME280;60173;52.112;8.648;2023-10-13T11:25:38;99518.72;;;22.27;72.36
72262;BME280;60173;52.112;8.648;2023-10-13T11:28:16;99511.25;;;22.14;73.78
72262;BME280;60173;52.112;8.648;2023-10-13T11:30:43;99510.41;;;22.38;74.36
72262;BME280;60173;52.112;8.648;2023-10-13T11:33:11;99510.38;;;22.45;72.01
72262;BME280;60173;52.112;8.648;2023-10-13T11:35:38;99504.47;;;22.36;72.64
72262;BME280;60173;52.112;8.648;2023-10-13T11:38:05;99499.63;;;22.62;72.49
72262;BME280;60173;52.112;8.648;2023-10-13T11:40:31;99493.22;;;22.79;72.92
72262;BME280;60173;52.112;8.648;2023-10-13T11:45:26;99489.09;;;23.12;69.77
72262;BME280;60173;52.112;8.648;2023-10-13T11:47:52;99484.94;;;23.38;68.62
72262;BME280;60173;52.112;8.648;2023-10-13T11:50:19;99474.66;;;23.35;66.87
72262;BME280;60173;52.112;8.648;2023-10-13T11:52:45;99480.16;;;23.39;67.78
72262;BME280;60173;52.112;8.648;2023-10-13T11:55:11;99473.06;;;23.34;67.55
72262;BME280;60173;52.112;8.648;2023-10-13T11:57:38;99477.72;;;23.89;65.96
72262;BME280;60173;52.112;8.648;2023-10-13T12:00:05;99475.56;;;24.08;66.80
72262;BME280;60173;52.112;8.648;2023-10-13T12:02:31;99464.59;;;23.56;65.41
72262;BME280;60173;52.112;8.648;2023-10-13T12:04:58;99468.66;;;23.85;66.09
72262;BME280;60173;52.112;8.648;2023-10-13T12:07:25;99456.81;;;23.85;67.18
72262;BME280;60173;52.112;8.648;2023-10-13T12:09:51;99448.47;;;23.85;67.32
72262;BME280;60173;52.112;8.648;2023-10-13T12:12:18;99444.66;;;23.68;66.80
72262;BME280;60173;52.112;8.648;2023-10-13T12:14:44;99451.50;;;23.56;67.86
72262;BME280;60173;52.112;8.648;2023-10-13T12:17:11;99437.56;;;23.67;67.75
72262;BME280;60173;52.112;8.648;2023-10-13T12:19:37;99439.25;;;23.54;66.99
72262;BME280;60173;52.112;8.648;2023-10-13T12:22:04;99428.81;;;23.27;67.36
72262;BME280;60173;52.112;8.648;2023-10-13T12:24:30;99424.38;;;23.37;66.58
72262;BME280;60173;52.112;8.648;2023-10-13T12:26:57;99423.84;;;23.53;66.08
72262;BME280;60173;52.112;8.648;2023-10-13T12:29:24;99413.44;;;23.64;66.37
72262;BME280;60173;52.112;8.648;2023-10-13T12:31:50;99421.50;;;23.48;66.26
72262;BME280;60173;52.112;8.648;2023-10-13T12:34:17;99423.69;;;23.67;66.45
72262;BME280;60173;52.112;8.648;2023-10-13T12:36:43;99410.91;;;23.39;65.98
72262;BME280;60173;52.112;8.648;2023-10-13T12:39:09;99410.56;;;23.33;65.62
72262;BME280;60173;52.112;8.648;2023-10-13T12:41:36;99412.97;;;23.69;65.64
72262;BME280;60173;52.112;8.648;2023-10-13T12:44:04;99402.44;;;23.53;66.03
72262;BME280;60173;52.112;8.648;2023-10-13T12:46:31;99406.41;;;23.94;65.91
72262;BME280;60173;52.112;8.648;2023-10-13T12:48:57;99400.69;;;24.08;64.34
72262;BME280;60173;52.112;8.648;2023-10-13T12:51:24;99396.19;;;24.18;65.43
72262;BME280;60173;52.112;8.648;2023-10-13T12:53:52;99395.53;;;24.37;63.62
72262;BME280;60173;52.112;8.648;2023-10-13T12:56:20;99388.25;;;24.20;63.12